Terminal Aerodrome Forecast
Issued by NWS

Home | Current Version | Previous Version | Text Only | Print | Product List | Glossary On
Versions: 1 2 3 4 5 6 7 8 9 10 11 12 13 14 15 16 17 18 19 20 21 22 23 24 25 26
596
FTUS45 KGGW 221122
TAFOLF
TAF
KOLF 221122Z 2212/2312 14010KT P6SM OVC019
     FM221400 14009KT P6SM BKN025
     FM221700 VRB05KT P6SM BKN040
     FM222100 25007KT P6SM SCT110
     FM230200 VRB05KT P6SM SCT110=

USA.gov is the U.S. government's official web portal to all federal, state and local government web resources and services.